Time;durP1;ratioP1;P1;durP2;ratioP2;P2;SDS_P1;SDS_P2;PMS_P1;PMS_P2;Temp;Humidity;BMP_temperature;BMP_pressure;BME280_temperature;BME280_humidity;BME280_pressure;Samples;Min_cycle;Max_cycle;Signal;HPM_P1;HPM_P2
2023/09/16 00:01:09;;;;;;;12.23;11.13;;;;;;;17.58;100.00;97923.88;5032725;28;20210;-72
2023/09/16 00:03:36;;;;;;;12.03;10.93;;;;;;;17.58;100.00;97933.81;5032643;28;20237;-72
2023/09/16 00:06:04;;;;;;;12.77;11.67;;;;;;;17.55;100.00;97929.78;5032891;28;20205;-72
2023/09/16 00:08:32;;;;;;;12.53;11.33;;;;;;;17.53;100.00;97931.94;5032817;28;20655;-72
2023/09/16 00:10:59;;;;;;;12.37;11.27;;;;;;;17.54;100.00;97936.25;5032877;28;20213;-72
2023/09/16 00:13:25;;;;;;;11.93;10.77;;;;;;;17.49;100.00;97930.03;5032481;28;20574;-72
2023/09/16 00:15:52;;;;;;;13.23;11.93;;;;;;;17.55;100.00;97932.47;5032525;28;20664;-72
2023/09/16 00:18:19;;;;;;;11.97;10.57;;;;;;;17.60;100.00;97929.78;5035152;28;20715;-72
2023/09/16 00:20:48;;;;;;;11.70;10.70;;;;;;;17.58;100.00;97934.63;5036234;28;20210;-72
2023/09/16 00:23:15;;;;;;;12.80;11.70;;;;;;;17.53;100.00;97939.19;5036475;28;20209;-72
2023/09/16 00:25:41;;;;;;;12.23;10.80;;;;;;;17.53;100.00;97936.50;5036154;28;20242;-72
2023/09/16 00:28:08;;;;;;;13.00;11.80;;;;;;;17.46;100.00;97930.59;5036064;28;20222;-72
2023/09/16 00:30:36;;;;;;;12.37;11.20;;;;;;;17.49;100.00;97936.22;5035784;28;20567;-72
2023/09/16 00:33:04;;;;;;;12.20;11.10;;;;;;;17.49;100.00;97930.03;5036013;28;20209;-72
2023/09/16 00:35:30;;;;;;;12.27;10.97;;;;;;;17.50;100.00;97932.47;5035696;28;20660;-72
2023/09/16 00:37:57;;;;;;;12.70;11.40;;;;;;;17.42;100.00;97924.13;5035875;28;20240;-72
2023/09/16 00:40:23;;;;;;;11.97;10.77;;;;;;;17.41;100.00;97931.38;5036031;28;20232;-72
2023/09/16 00:42:49;;;;;;;12.20;11.10;;;;;;;17.43;100.00;97934.63;5036176;28;20202;-72
2023/09/16 00:45:16;;;;;;;12.33;11.23;;;;;;;17.37;100.00;97930.25;5036137;28;20206;-72
2023/09/16 00:47:42;;;;;;;12.50;11.40;;;;;;;17.25;100.00;97924.31;5035782;28;20225;-72
2023/09/16 00:50:11;;;;;;;10.93;9.97;;;;;;;17.13;100.00;97934.47;5035721;28;20672;-72
2023/09/16 00:52:40;;;;;;;12.40;11.20;;;;;;;17.07;100.00;97927.47;5035745;28;20206;-73
2023/09/16 00:55:08;;;;;;;12.40;11.30;;;;;;;17.13;100.00;97929.09;5035730;28;20216;-72
2023/09/16 00:57:37;;;;;;;12.53;11.30;;;;;;;17.10;100.00;97932.31;5035421;28;20234;-72
2023/09/16 01:00:08;;;;;;;12.00;11.00;;;;;;;17.13;100.00;97939.03;5035770;28;20190;-72
2023/09/16 01:02:37;;;;;;;11.27;10.27;;;;;;;17.12;100.00;97930.19;5035668;28;20201;-72
2023/09/16 01:05:08;;;;;;;12.20;11.03;;;;;;;17.13;100.00;97930.97;5035576;28;20208;-72
2023/09/16 01:07:35;;;;;;;11.77;10.60;;;;;;;17.09;100.00;97933.38;5035429;28;20229;-72
2023/09/16 01:10:02;;;;;;;12.23;10.67;;;;;;;17.05;100.00;97937.66;5035349;28;20206;-72
2023/09/16 01:12:29;;;;;;;12.20;11.07;;;;;;;17.10;100.00;97929.63;5035405;28;20206;-72
2023/09/16 01:14:55;;;;;;;11.70;10.70;;;;;;;17.16;100.00;97935.81;5035087;28;20572;-72
2023/09/16 01:17:26;;;;;;;12.43;11.37;;;;;;;17.25;100.00;97931.56;5035462;28;20233;-72
2023/09/16 01:20:02;;;;;;;13.20;12.00;;;;;;;17.12;100.00;97930.19;5035061;28;20281;-72
2023/09/16 01:22:29;;;;;;;12.53;11.43;;;;;;;17.07;100.00;97934.72;5036114;28;20206;-72
2023/09/16 01:24:56;;;;;;;12.77;11.57;;;;;;;17.08;100.00;97926.41;5034963;28;20349;-72
2023/09/16 01:27:23;;;;;;;13.03;11.83;;;;;;;16.92;100.00;97932.78;5034832;28;20697;-72
2023/09/16 01:29:50;;;;;;;12.07;11.03;;;;;;;16.84;100.00;97937.84;5034538;28;20208;-72
2023/09/16 01:32:22;;;;;;;12.13;11.03;;;;;;;16.86;100.00;97927.63;5035027;28;20213;-72
2023/09/16 01:34:54;;;;;;;12.77;11.63;;;;;;;16.88;100.00;97928.19;5035067;28;20429;-72
2023/09/16 01:37:24;;;;;;;13.40;12.03;;;;;;;16.86;100.00;97920.41;5034774;28;20236;-73
2023/09/16 01:39:56;;;;;;;12.10;11.10;;;;;;;16.90;100.00;97921.50;5034944;28;20212;-72
2023/09/16 01:42:23;;;;;;;12.73;11.57;;;;;;;16.95;100.00;97923.38;5034938;28;20200;-72
2023/09/16 01:44:54;;;;;;;13.17;11.90;;;;;;;16.94;100.00;97927.97;5034640;28;20693;-72
2023/09/16 01:47:20;;;;;;;13.50;12.17;;;;;;;16.88;100.00;97928.19;5034645;28;20233;-72
2023/09/16 01:49:47;;;;;;;11.90;10.87;;;;;;;16.90;100.00;97932.25;5034491;28;20209;-72
2023/09/16 01:52:16;;;;;;;13.40;12.17;;;;;;;16.88;100.00;97922.81;5034657;28;20202;-72
2023/09/16 01:54:42;;;;;;;14.00;12.60;;;;;;;16.86;100.00;97931.13;5034827;28;20206;-72
2023/09/16 01:57:09;;;;;;;14.30;12.97;;;;;;;16.86;100.00;97933.81;5034416;28;20226;-72
2023/09/16 01:59:35;;;;;;;13.23;11.97;;;;;;;16.76;100.00;97933.78;5034568;28;20232;-72
2023/09/16 02:02:02;;;;;;;14.17;12.77;;;;;;;16.67;100.00;97935.34;5034590;28;20584;-73
2023/09/16 02:04:28;;;;;;;14.27;12.83;;;;;;;16.70;100.00;97932.13;5034149;28;20672;-73
2023/09/16 02:06:55;;;;;;;15.20;13.70;;;;;;;16.68;100.00;97936.13;5033997;28;20205;-73
2023/09/16 02:09:21;;;;;;;14.63;12.57;;;;;;;16.66;100.00;97933.75;5034354;28;20214;-73
2023/09/16 02:11:48;;;;;;;14.43;13.03;;;;;;;16.64;100.00;97941.22;5034349;28;20288;-73
2023/09/16 02:14:20;;;;;;;14.67;13.27;;;;;;;16.63;100.00;97944.16;5034345;28;20244;-73
2023/09/16 02:16:46;;;;;;;14.47;13.07;;;;;;;16.69;100.00;97941.25;5034161;28;20241;-73
2023/09/16 02:19:13;;;;;;;14.27;12.87;;;;;;;16.67;100.00;97938.03;5034139;28;20226;-73
2023/09/16 02:21:39;;;;;;;13.93;12.67;;;;;;;16.71;100.00;97939.13;5033870;28;20206;-73
2023/09/16 02:24:06;;;;;;;14.63;13.17;;;;;;;16.74;100.00;97952.00;5034177;28;20212;-73
2023/09/16 02:26:32;;;;;;;14.20;12.70;;;;;;;16.74;100.00;97946.66;5033770;28;20553;-73
2023/09/16 02:28:59;;;;;;;15.67;14.17;;;;;;;16.75;100.00;97956.34;5033693;28;20738;-73
2023/09/16 02:31:26;;;;;;;15.97;14.20;;;;;;;16.76;100.00;97957.94;5034180;28;20206;-73
2023/09/16 02:33:56;;;;;;;15.20;13.63;;;;;;;16.71;100.00;97952.56;5033979;28;20214;-73
2023/09/16 02:36:23;;;;;;;16.80;15.00;;;;;;;16.69;100.00;97957.34;5033917;28;20280;-73
2023/09/16 02:38:49;;;;;;;16.27;14.57;;;;;;;16.67;100.00;97958.69;5033750;28;20241;-73
2023/09/16 02:41:17;;;;;;;16.13;14.53;;;;;;;16.59;100.00;97957.31;5032853;28;20202;-73
2023/09/16 02:43:44;;;;;;;16.13;14.47;;;;;;;16.59;100.00;97956.47;5033798;28;20264;-73
2023/09/16 02:46:11;;;;;;;15.43;13.70;;;;;;;16.53;100.00;97962.91;5033816;28;20210;-73
2023/09/16 02:48:37;;;;;;;15.77;14.13;;;;;;;16.51;100.00;97955.09;5033722;28;20225;-73
2023/09/16 02:51:04;;;;;;;15.47;14.07;;;;;;;16.53;100.00;97949.47;5033732;28;20248;-73
2023/09/16 02:53:30;;;;;;;16.43;14.83;;;;;;;16.52;100.00;97953.22;5033715;28;20216;-73
2023/09/16 02:55:57;;;;;;;16.63;14.97;;;;;;;16.49;100.00;97954.56;5033640;28;20612;-73
2023/09/16 02:58:24;;;;;;;17.03;14.30;;;;;;;16.47;100.00;97951.31;5033331;28;20229;-73
2023/09/16 03:00:50;;;;;;;14.60;13.20;;;;;;;16.44;100.00;97953.72;5033593;28;20206;-73
2023/09/16 03:03:16;;;;;;;16.23;14.60;;;;;;;16.45;100.00;97950.78;5033350;28;20208;-73
2023/09/16 03:05:45;;;;;;;16.47;14.77;;;;;;;16.49;100.00;97951.88;5033389;28;20216;-73
2023/09/16 03:08:12;;;;;;;15.50;14.07;;;;;;;16.48;100.00;97961.00;5033402;28;20217;-73
2023/09/16 03:10:39;;;;;;;15.47;13.97;;;;;;;16.52;100.00;97955.91;5033051;28;20206;-73
2023/09/16 03:13:05;;;;;;;15.00;13.50;;;;;;;16.57;100.00;97953.25;5033530;28;20208;-73
2023/09/16 03:15:31;;;;;;;15.60;14.00;;;;;;;16.50;100.00;97956.16;5033091;28;20778;-73
2023/09/16 03:17:58;;;;;;;14.97;13.30;;;;;;;16.51;100.00;97955.09;5033054;28;20692;-73
2023/09/16 03:20:24;;;;;;;15.37;13.77;;;;;;;16.46;100.00;97946.22;5033376;28;20691;-73
2023/09/16 03:22:50;;;;;;;14.67;13.30;;;;;;;16.45;100.00;97945.41;5033456;28;20575;-73
2023/09/16 03:25:17;;;;;;;15.80;14.27;;;;;;;16.41;100.00;97946.97;5033373;28;20210;-73
2023/09/16 03:27:43;;;;;;;14.10;12.80;;;;;;;16.41;100.00;97938.94;5033068;28;20229;-73
2023/09/16 03:30:10;;;;;;;15.47;13.97;;;;;;;16.44;100.00;97942.97;5033175;28;20216;-73
2023/09/16 03:32:39;;;;;;;15.13;13.67;;;;;;;16.49;100.00;97941.16;5033056;28;20212;-73
2023/09/16 03:35:06;;;;;;;15.77;14.17;;;;;;;16.46;100.00;97938.97;5033008;28;20214;-73
2023/09/16 03:37:32;;;;;;;15.20;13.80;;;;;;;16.38;100.00;97933.25;5032904;28;20244;-73
2023/09/16 03:39:58;;;;;;;15.63;13.63;;;;;;;16.42;100.00;97937.06;5032883;28;20206;-73
2023/09/16 03:42:24;;;;;;;15.60;14.10;;;;;;;16.42;100.00;97935.19;5033057;28;20221;-73
2023/09/16 03:44:51;;;;;;;15.17;13.77;;;;;;;16.47;100.00;97929.84;5032829;28;20569;-73
2023/09/16 03:47:17;;;;;;;15.50;13.90;;;;;;;16.48;100.00;97934.16;5033086;28;20233;-73
2023/09/16 03:49:43;;;;;;;15.53;14.13;;;;;;;16.43;100.00;97936.81;5033012;28;20671;-73
2023/09/16 03:52:10;;;;;;;15.87;14.30;;;;;;;16.42;100.00;97934.38;5034271;28;20217;-73
2023/09/16 03:54:36;;;;;;;15.03;13.63;;;;;;;16.32;100.00;97931.59;5036944;28;20206;-73
2023/09/16 03:57:03;;;;;;;15.53;13.93;;;;;;;16.35;100.00;97934.59;5036721;28;20216;-73
2023/09/16 03:59:29;;;;;;;15.43;13.87;;;;;;;16.32;100.00;97929.72;5036425;28;20210;-73
2023/09/16 04:01:56;;;;;;;14.60;13.10;;;;;;;16.32;100.00;97929.72;5036797;28;20206;-73
2023/09/16 04:04:22;;;;;;;15.53;13.90;;;;;;;16.30;100.00;97923.81;5036653;28;20212;-73
2023/09/16 04:06:48;;;;;;;15.47;14.07;;;;;;;16.24;100.00;97919.47;5036639;28;20205;-73
2023/09/16 04:09:16;;;;;;;16.37;14.77;;;;;;;16.23;100.00;97912.50;5036539;28;20672;-73
2023/09/16 04:11:42;;;;;;;16.40;14.77;;;;;;;16.21;100.00;97911.97;5036504;28;20288;-73
2023/09/16 04:14:08;;;;;;;16.53;14.83;;;;;;;16.23;100.00;97909.81;5036394;28;20572;-73
2023/09/16 04:16:35;;;;;;;15.57;14.07;;;;;;;16.29;100.00;97921.38;5036152;28;20680;-73
2023/09/16 04:19:01;;;;;;;16.33;14.70;;;;;;;16.29;100.00;97913.34;5036309;28;20333;-73
2023/09/16 04:21:28;;;;;;;16.10;14.50;;;;;;;16.28;100.00;97915.19;5036360;28;20201;-73
2023/09/16 04:23:54;;;;;;;16.00;14.40;;;;;;;16.26;100.00;97921.91;5036351;28;20213;-73
2023/09/16 04:26:21;;;;;;;15.93;14.23;;;;;;;16.26;100.00;97921.91;5036266;28;20239;-73
2023/09/16 04:28:47;;;;;;;16.13;14.43;;;;;;;16.24;100.00;97924.84;5035861;28;20225;-73
2023/09/16 04:31:13;;;;;;;15.73;14.07;;;;;;;16.24;100.00;97924.84;5036242;28;20210;-73
2023/09/16 04:33:40;;;;;;;15.23;13.73;;;;;;;16.26;100.00;97919.22;5036248;28;20216;-73
2023/09/16 04:36:08;;;;;;;16.33;14.63;;;;;;;16.28;100.00;97915.19;5036005;28;20210;-73
2023/09/16 04:38:34;;;;;;;15.53;13.93;;;;;;;16.28;100.00;97920.56;5035143;28;20221;-73
2023/09/16 04:41:00;;;;;;;16.17;14.53;;;;;;;16.22;100.00;97910.88;5035425;28;20640;-73
2023/09/16 04:43:27;;;;;;;15.07;13.63;;;;;;;16.26;100.00;97912.00;5035585;28;20692;-73
2023/09/16 04:45:54;;;;;;;15.87;14.37;;;;;;;16.20;100.00;97913.00;5035994;28;20206;-73
2023/09/16 04:48:22;;;;;;;15.80;14.20;;;;;;;16.18;100.00;97909.78;5035816;28;20280;-73
2023/09/16 04:50:49;;;;;;;15.60;14.10;;;;;;;16.16;100.00;97903.88;5036059;28;20209;-73
2023/09/16 04:53:16;;;;;;;15.03;13.63;;;;;;;16.11;100.00;97908.38;5035505;28;20577;-73
2023/09/16 04:55:42;;;;;;;15.67;14.27;;;;;;;16.08;100.00;97900.84;5035764;28;20302;-73
2023/09/16 04:58:09;;;;;;;15.23;13.87;;;;;;;16.07;100.00;97902.75;5035465;28;20226;-73
2023/09/16 05:00:37;;;;;;;16.00;14.43;;;;;;;16.10;100.00;97894.16;5035709;28;20213;-73
2023/09/16 05:03:04;;;;;;;15.13;13.63;;;;;;;16.16;100.00;97900.38;5035005;28;20256;-73
2023/09/16 05:05:31;;;;;;;15.23;13.83;;;;;;;16.09;100.00;97897.09;5035149;28;20201;-73
2023/09/16 05:07:57;;;;;;;15.80;14.33;;;;;;;16.13;100.00;97899.03;5035383;28;20229;-73
2023/09/16 05:10:24;;;;;;;15.13;13.73;;;;;;;16.14;100.00;97907.84;5035449;28;20209;-73
2023/09/16 05:12:50;;;;;;;15.80;14.20;;;;;;;16.11;100.00;97909.19;5035430;28;20209;-73
2023/09/16 05:15:17;;;;;;;15.00;13.60;;;;;;;16.33;100.00;97906.41;5035426;28;20205;-73
2023/09/16 05:17:43;;;;;;;15.83;13.73;;;;;;;16.32;100.00;97904.75;5035135;28;20229;-73
2023/09/16 05:20:10;;;;;;;14.87;13.30;;;;;;;16.28;100.00;97898.31;5034735;28;20676;-73
2023/09/16 05:22:38;;;;;;;16.23;13.80;;;;;;;16.31;100.00;97901.28;5035145;28;20202;-73
2023/09/16 05:25:05;;;;;;;15.47;13.73;;;;;;;16.30;100.00;97899.69;5035207;28;20206;-73
2023/09/16 05:27:32;;;;;;;15.57;14.07;;;;;;;16.24;100.00;97905.25;5034762;28;20230;-73
2023/09/16 05:29:58;;;;;;;15.47;14.03;;;;;;;16.21;100.00;97898.53;5035088;28;20206;-73
2023/09/16 05:32:24;;;;;;;13.87;12.67;;;;;;;16.25;100.00;97896.97;5034941;28;20206;-73
2023/09/16 05:34:51;;;;;;;14.93;13.33;;;;;;;16.24;100.00;97899.91;5034825;28;20202;-73
2023/09/16 05:37:17;;;;;;;14.63;13.23;;;;;;;16.23;100.00;97901.75;5034558;28;20226;-73
2023/09/16 05:39:43;;;;;;;14.50;13.10;;;;;;;16.29;100.00;97897.25;5034719;28;20234;-73
2023/09/16 05:42:10;;;;;;;15.07;13.53;;;;;;;16.34;100.00;97898.09;5034777;28;20206;-73
2023/09/16 05:44:36;;;;;;;14.47;13.17;;;;;;;16.36;100.00;97895.13;5034993;28;20206;-73
2023/09/16 05:47:03;;;;;;;15.10;13.50;;;;;;;16.34;100.00;97897.28;5034746;28;20210;-73
2023/09/16 05:49:29;;;;;;;15.37;13.97;;;;;;;16.36;100.00;97901.31;5034610;28;20202;-73
2023/09/16 05:51:55;;;;;;;14.17;12.93;;;;;;;16.40;100.00;97904.31;5034622;28;20202;-73
2023/09/16 05:54:22;;;;;;;15.33;13.70;;;;;;;16.42;100.00;97902.19;5034966;28;20202;-73
2023/09/16 05:56:49;;;;;;;15.60;14.20;;;;;;;16.56;100.00;97898.75;5034512;28;20212;-73
2023/09/16 05:59:16;;;;;;;14.87;13.47;;;;;;;16.60;100.00;97904.44;5034235;28;20232;-73
2023/09/16 06:01:42;;;;;;;15.60;14.10;;;;;;;16.70;100.00;97904.47;5034891;28;20205;-73
2023/09/16 06:04:09;;;;;;;15.20;13.63;;;;;;;16.76;100.00;97892.69;5034436;28;20288;-73
2023/09/16 06:06:36;;;;;;;15.03;13.60;;;;;;;16.83;100.00;97893.28;5034205;28;20557;-73
2023/09/16 06:09:03;;;;;;;15.97;14.47;;;;;;;16.87;100.00;97897.06;5034241;28;20221;-73
2023/09/16 06:11:30;;;;;;;16.03;14.20;;;;;;;16.91;100.00;97893.56;5034351;28;20202;-73
2023/09/16 06:13:57;;;;;;;15.20;13.80;;;;;;;16.99;100.00;97893.06;5034368;28;20202;-73
2023/09/16 06:16:23;;;;;;;13.93;12.63;;;;;;;17.05;100.00;97891.22;5033770;28;20210;-73
2023/09/16 06:18:49;;;;;;;15.23;13.27;;;;;;;17.07;100.00;97892.56;5034035;28;20590;-73
2023/09/16 06:21:16;;;;;;;15.53;14.13;;;;;;;17.14;100.00;97898.47;5033791;28;20573;-73
2023/09/16 06:23:43;;;;;;;15.77;14.33;;;;;;;17.14;100.00;97909.22;5033944;28;20212;-73
2023/09/16 06:26:11;;;;;;;13.90;12.60;;;;;;;17.17;100.00;97906.03;5034304;28;20206;-73
2023/09/16 06:28:38;;;;;;;14.37;13.07;;;;;;;17.43;100.00;97905.06;5033978;28;20727;-73
2023/09/16 06:31:05;;;;;;;14.90;13.47;;;;;;;17.33;100.00;97899.59;5033660;28;20700;-73
2023/09/16 06:33:31;;;;;;;14.47;13.10;;;;;;;17.48;100.00;97907.75;5033669;28;20688;-73
2023/09/16 06:35:58;;;;;;;14.27;12.97;;;;;;;17.39;100.00;97905.81;5033839;28;20208;-73
2023/09/16 06:38:24;;;;;;;15.03;13.63;;;;;;;17.59;100.00;97913.91;5033800;28;20326;-73
2023/09/16 06:40:51;;;;;;;14.00;12.70;;;;;;;17.60;100.00;97915.56;5033645;28;20202;-73
2023/09/16 06:43:17;;;;;;;15.17;13.80;;;;;;;17.62;100.00;97911.53;5033800;28;20209;-73
2023/09/16 06:45:43;;;;;;;14.10;12.70;;;;;;;17.67;100.00;97911.53;5033754;28;20209;-73
2023/09/16 06:48:10;;;;;;;15.17;13.67;;;;;;;17.68;100.00;97906.94;5033705;28;20218;-73
2023/09/16 06:50:36;;;;;;;14.53;13.23;;;;;;;17.78;100.00;97899.69;5033375;28;20208;-73
2023/09/16 06:53:03;;;;;;;14.30;13.00;;;;;;;17.95;100.00;97905.63;5033643;28;20234;-73
2023/09/16 06:55:29;;;;;;;14.77;13.37;;;;;;;17.84;100.00;97906.72;5033578;28;20210;-73
2023/09/16 06:57:56;;;;;;;14.83;13.43;;;;;;;17.88;100.00;97905.09;5033392;28;20238;-73
2023/09/16 07:00:22;;;;;;;13.90;12.60;;;;;;;17.90;100.00;97904.81;5033687;28;20206;-73
2023/09/16 07:02:48;;;;;;;14.73;13.33;;;;;;;17.98;100.00;97897.03;5033585;28;20213;-73
2023/09/16 07:05:15;;;;;;;14.40;13.10;;;;;;;17.95;100.00;97902.94;5033490;28;20208;-73
2023/09/16 07:07:42;;;;;;;15.43;14.03;;;;;;;18.03;100.00;97902.41;5033361;28;20226;-73
2023/09/16 07:10:09;;;;;;;15.77;14.10;;;;;;;18.10;100.00;97911.00;5033185;28;20688;-73
2023/09/16 07:12:35;;;;;;;15.73;14.33;;;;;;;18.21;100.00;97914.47;5033415;28;20212;-73
2023/09/16 07:15:01;;;;;;;14.70;13.17;;;;;;;18.29;100.00;97917.44;5033418;28;20206;-73
2023/09/16 07:17:28;;;;;;;16.20;14.63;;;;;;;18.33;100.00;97918.53;5033618;28;20235;-73
2023/09/16 07:19:54;;;;;;;16.13;14.63;;;;;;;18.57;100.00;97918.75;5033436;28;20229;-73
2023/09/16 07:22:20;;;;;;;15.40;13.80;;;;;;;18.64;100.00;97919.31;5033223;28;20213;-73
2023/09/16 07:24:47;;;;;;;14.90;13.60;;;;;;;18.65;100.00;97908.25;5033286;28;20205;-73
2023/09/16 07:27:13;;;;;;;14.80;13.43;;;;;;;18.74;100.00;97909.28;5034508;28;20320;-73
2023/09/16 07:29:39;;;;;;;14.60;13.27;;;;;;;18.77;100.00;97913.34;5037312;28;20197;-73
2023/09/16 07:32:06;;;;;;;14.17;12.77;;;;;;;18.81;100.00;97914.38;5037166;28;20205;-73
2023/09/16 07:34:32;;;;;;;16.50;14.03;;;;;;;18.97;100.00;97915.94;5037299;28;20206;-73
2023/09/16 07:36:58;;;;;;;14.53;13.23;;;;;;;19.02;100.00;97907.84;5036835;28;20210;-73
2023/09/16 07:39:25;;;;;;;14.73;13.40;;;;;;;19.00;100.00;97910.81;5036888;28;20228;-73
2023/09/16 07:41:51;;;;;;;14.03;12.67;;;;;;;18.97;100.00;97913.25;5037219;28;20212;-73
2023/09/16 07:44:17;;;;;;;13.90;12.60;;;;;;;18.98;100.00;97909.47;5036836;28;20206;-74
2023/09/16 07:46:45;;;;;;;13.87;12.63;;;;;;;19.39;100.00;97908.22;5036968;28;20600;-74
2023/09/16 07:49:12;;;;;;;12.73;11.63;;;;;;;19.31;100.00;97901.53;5036852;28;20222;-74
2023/09/16 07:51:40;;;;;;;13.77;12.37;;;;;;;19.54;100.00;97902.75;5036680;28;20669;-74
2023/09/16 07:54:10;;;;;;;13.83;12.50;;;;;;;19.46;100.00;97909.53;5036546;28;20275;-74
2023/09/16 07:56:36;;;;;;;13.50;12.30;;;;;;;19.54;100.00;97919.72;5037110;28;20202;-74
2023/09/16 07:59:04;;;;;;;13.27;11.87;;;;;;;19.75;100.00;97917.69;5036467;28;20234;-75
2023/09/16 08:01:30;;;;;;;13.40;12.17;;;;;;;19.96;100.00;97923.75;5036597;28;20607;-75
2023/09/16 08:03:57;;;;;;;12.33;11.03;;;;;;;19.93;100.00;97924.34;5036231;28;20260;-75
2023/09/16 08:06:26;;;;;;;13.10;11.80;;;;;;;20.04;100.00;97932.06;5036471;28;20205;-75
2023/09/16 08:08:52;;;;;;;12.00;10.50;;;;;;;20.11;100.00;97935.25;5036462;28;20222;-75
2023/09/16 08:11:19;;;;;;;11.17;10.13;;;;;;;20.19;100.00;97931.16;5036557;28;20206;-75
2023/09/16 08:13:46;;;;;;;11.80;10.80;;;;;;;20.39;100.00;97931.00;5036250;28;20572;-75
2023/09/16 08:16:12;;;;;;;11.63;10.43;;;;;;;20.53;100.00;97929.22;5036994;28;20210;-74
2023/09/16 08:18:39;;;;;;;11.53;10.43;;;;;;;20.58;100.00;97934.56;5035889;28;20685;-73
2023/09/16 08:21:05;;;;;;;11.60;10.37;;;;;;;20.60;100.00;97924.28;5036295;28;20246;-73
2023/09/16 08:23:31;;;;;;;12.57;11.47;;;;;;;20.71;100.00;97929.28;5036343;28;20217;-73
2023/09/16 08:25:58;;;;;;;10.40;9.50;;;;;;;20.80;100.00;97934.88;5036144;28;20245;-73
2023/09/16 08:28:24;;;;;;;10.43;9.43;;;;;;;20.72;100.00;97933.63;5036855;28;20287;-73
2023/09/16 08:30:51;;;;;;;11.77;10.67;;;;;;;20.71;100.00;97947.41;5036129;28;20216;-73
2023/09/16 08:33:18;;;;;;;10.17;9.27;;;;;;;20.77;100.00;97952.47;5035735;28;20221;-73
2023/09/16 08:35:44;;;;;;;10.47;9.53;;;;;;;20.83;100.00;97948.63;5035778;28;20210;-70
2023/09/16 08:38:10;;;;;;;10.03;9.23;;;;;;;20.86;100.00;97949.94;5035715;28;20230;-70
2023/09/16 08:40:37;;;;;;;9.60;8.80;;;;;;;21.05;100.00;97950.84;5035512;28;20226;-70
2023/09/16 08:43:10;;;;;;;9.13;8.33;;;;;;;21.21;100.00;97953.06;5035370;28;20209;-71
2023/09/16 08:45:44;;;;;;;9.80;8.90;;;;;;;21.34;100.00;97951.56;5035519;28;20194;-71
2023/09/16 08:48:15;;;;;;;9.13;8.33;;;;;;;21.33;100.00;97952.66;5035747;28;20229;-71
2023/09/16 08:50:42;;;;;;;8.27;7.57;;;;;;;21.22;100.00;97952.00;5035638;28;20190;-71
2023/09/16 08:53:11;;;;;;;7.37;6.77;;;;;;;21.29;100.00;97954.34;5035842;28;20210;-72
2023/09/16 08:55:38;;;;;;;8.73;7.83;;;;;;;21.66;100.00;97959.78;5035483;28;20202;-71
2023/09/16 08:58:09;;;;;;;8.30;7.70;;;;;;;21.71;100.00;97954.34;5035059;28;20245;-71
2023/09/16 09:00:39;;;;;;;8.20;7.43;;;;;;;21.53;100.00;97960.50;5035084;28;20616;-71
2023/09/16 09:03:06;;;;;;;7.77;7.07;;;;;;;21.86;100.00;97959.53;5035553;28;20217;-71
2023/09/16 09:05:35;;;;;;;8.67;7.97;;;;;;;21.73;100.00;97957.53;5035507;28;20210;-71
2023/09/16 09:08:02;;;;;;;8.13;7.43;;;;;;;21.65;100.00;97950.03;5035221;28;20237;-71
2023/09/16 09:10:28;;;;;;;8.10;7.40;;;;;;;21.86;100.00;97946.00;5035350;28;20198;-71
2023/09/16 09:12:57;;;;;;;6.90;6.30;;;;;;;22.20;100.00;97943.84;5035279;28;20210;-71
2023/09/16 09:15:25;;;;;;;7.35;6.65;;;;;;;22.19;100.00;97950.34;5034666;28;20635;-71
2023/09/16 09:17:56;;;;;;;8.00;7.22;;;;;;;22.42;100.00;97947.50;5035031;28;20232;-71
2023/09/16 09:20:25;;;;;;;8.05;7.30;;;;;;;22.60;100.00;97949.38;5034700;28;20214;-74
2023/09/16 09:22:52;;;;;;;6.43;5.93;;;;;;;22.62;100.00;97951.81;5035043;28;20212;-74
2023/09/16 09:25:22;;;;;;;8.45;7.75;;;;;;;22.47;100.00;97938.53;5033636;28;20210;-74
2023/09/16 09:27:53;;;;;;;6.78;6.07;;;;;;;22.98;100.00;97936.50;5033487;28;20230;-74
2023/09/16 09:30:24;;;;;;;6.95;6.25;;;;;;;22.91;100.00;97938.78;5033686;28;20193;-74
2023/09/16 09:32:51;;;;;;;5.78;5.35;;;;;;;22.92;100.00;97937.69;5033602;28;20194;-74
2023/09/16 09:35:21;;;;;;;6.20;5.60;;;;;;;23.20;100.00;97942.81;5033461;28;20212;-74
2023/09/16 09:37:48;;;;;;;5.93;5.53;;;;;;;23.42;100.00;97934.78;5032943;28;20759;-74
2023/09/16 09:40:15;;;;;;;5.45;5.00;;;;;;;23.56;100.00;97940.97;5034256;28;20328;-74
2023/09/16 09:42:44;;;;;;;5.47;5.07;;;;;;;23.35;100.00;97947.16;5034647;28;20264;-74
2023/09/16 09:45:12;;;;;;;5.95;5.35;;;;;;;23.55;100.00;97943.97;5034661;28;20205;-74
2023/09/16 09:47:39;;;;;;;6.25;5.65;;;;;;;23.84;99.77;97947.94;5034152;28;20226;-74
2023/09/16 09:50:08;;;;;;;6.35;5.75;;;;;;;24.04;100.00;97933.94;5033978;28;20208;-74
2023/09/16 09:52:35;;;;;;;5.82;5.40;;;;;;;23.90;100.00;97944.03;5034613;28;20259;-74
2023/09/16 09:55:02;;;;;;;7.43;6.68;;;;;;;23.76;100.00;97950.59;5034536;28;20217;-74
2023/09/16 09:57:28;;;;;;;6.55;5.95;;;;;;;23.94;100.00;97953.19;5034088;28;20312;-74
2023/09/16 09:59:59;;;;;;;6.32;5.78;;;;;;;23.98;100.00;97958.78;5034456;28;20214;-74
2023/09/16 10:02:26;;;;;;;6.55;6.05;;;;;;;24.08;100.00;97947.69;5034055;28;20212;-74
2023/09/16 10:05:02;;;;;;;6.28;5.70;;;;;;;24.21;100.00;97952.25;5034200;28;20206;-74
2023/09/16 10:07:30;;;;;;;5.90;5.40;;;;;;;24.46;97.57;97947.00;5033880;28;20594;-74
2023/09/16 10:09:56;;;;;;;6.22;5.72;;;;;;;24.41;97.18;97943.59;5033997;28;20201;-74
2023/09/16 10:12:23;;;;;;;7.45;5.47;;;;;;;23.93;99.11;97935.25;5033797;28;20205;-74
2023/09/16 10:14:51;;;;;;;5.50;4.95;;;;;;;24.47;97.66;97934.22;5034055;28;20206;-75
2023/09/16 10:17:18;;;;;;;5.68;5.18;;;;;;;24.52;95.79;97931.38;5033855;28;20226;-74
2023/09/16 10:19:45;;;;;;;5.50;5.10;;;;;;;24.71;93.71;97932.78;5033817;28;20226;-74
2023/09/16 10:22:12;;;;;;;6.28;5.68;;;;;;;24.28;94.41;97941.78;5034083;28;20205;-74
2023/09/16 10:24:41;;;;;;;5.75;5.25;;;;;;;24.75;95.56;97943.84;5034037;28;20213;-74
2023/09/16 10:27:14;;;;;;;4.85;4.45;;;;;;;24.99;90.50;97941.53;5033382;28;20731;-74
2023/09/16 10:29:43;;;;;;;4.80;4.40;;;;;;;24.70;87.58;97933.88;5033614;28;20182;-74
2023/09/16 10:32:10;;;;;;;3.88;3.63;;;;;;;25.00;84.04;97937.69;5033838;28;20580;-74
2023/09/16 10:34:39;;;;;;;4.15;3.78;;;;;;;24.85;86.21;97943.56;5033496;28;20210;-74
2023/09/16 10:37:05;;;;;;;4.28;3.97;;;;;;;24.45;86.61;97928.28;5033411;28;20289;-74
2023/09/16 10:39:33;;;;;;;3.95;3.65;;;;;;;24.51;84.51;97933.28;5033354;28;20229;-74
2023/09/16 10:42:00;;;;;;;4.30;4.00;;;;;;;24.89;86.71;97925.50;5033629;28;20206;-74
2023/09/16 10:44:29;;;;;;;4.97;4.57;;;;;;;25.05;86.77;97932.94;5034183;28;20208;-74
2023/09/16 10:46:55;;;;;;;4.38;4.07;;;;;;;25.01;86.03;97929.22;5033384;28;20217;-74
2023/09/16 10:49:22;;;;;;;3.72;3.42;;;;;;;25.28;84.15;97922.81;5033473;28;20202;-74
2023/09/16 10:51:48;;;;;;;3.53;3.33;;;;;;;25.15;81.72;97931.84;5033387;28;20208;-74
2023/09/16 10:54:25;;;;;;;4.95;4.55;;;;;;;25.46;85.23;97929.88;5015551;28;20582;-74
2023/09/16 10:56:57;;;;;;;5.03;4.60;;;;;;;25.27;86.37;97932.06;5032858;28;20656;-74
2023/09/16 10:59:27;;;;;;;4.95;4.63;;;;;;;25.48;86.19;97923.00;5033234;28;20280;-74
2023/09/16 11:02:01;;;;;;;5.07;4.63;;;;;;;25.70;83.79;97919.34;5032684;28;20212;-74
2023/09/16 11:04:28;;;;;;;4.82;4.43;;;;;;;25.43;84.65;97915.00;5033368;28;20201;-74
2023/09/16 11:06:56;;;;;;;4.57;4.18;;;;;;;25.51;86.92;97905.22;5033258;28;20228;-74
2023/09/16 11:09:24;;;;;;;4.30;4.00;;;;;;;25.67;86.47;97909.06;5033164;28;20202;-74
2023/09/16 11:11:52;;;;;;;4.60;4.30;;;;;;;25.78;82.83;97904.94;5032998;28;20669;-74
2023/09/16 11:14:21;;;;;;;3.78;3.58;;;;;;;25.90;79.96;97902.34;5033989;28;20212;-74